Time;durP1;ratioP1;P1;durP2;ratioP2;P2;SDS_P1;SDS_P2;PMS_P1;PMS_P2;Temp;Humidity;BMP_temperature;BMP_pressure;BME280_temperature;BME280_humidity;BME280_pressure;Samples;Min_cycle;Max_cycle;Signal;HPM_P1;HPM_P2
2023/02/28 00:00:23;;;;;;;;;;;;;;;-0.56;74.38;100149.03;5050763;28;19957;-83
2023/02/28 00:02:48;;;;;;;;;;;;;;;-0.97;70.94;100144.25;5046330;28;19917;-83
2023/02/28 00:05:16;;;;;;;;;;;;;;;-1.21;72.48;100146.53;5048004;28;19920;-83
2023/02/28 00:07:44;;;;;;;;;;;;;;;-0.11;73.73;100139.38;5049653;28;19916;-82
2023/02/28 00:10:11;;;;;;;;;;;;;;;0.06;73.20;100144.78;5044599;28;19920;-82
2023/02/28 00:12:37;;;;;;;;;;;;;;;0.33;72.25;100144.72;5070836;28;19921;-83
2023/02/28 00:15:02;;;;;;;;;;;;;;;0.39;72.16;100144.94;5063798;28;19920;-83
2023/02/28 00:17:27;;;;;;;;;;;;;;;0.46;71.71;100143.34;5049338;28;19924;-82
2023/02/28 00:19:53;;;;;;;;;;;;;;;-0.05;72.13;100151.09;5050465;28;19933;-83
2023/02/28 00:22:19;;;;;;;;;;;;;;;0.28;72.21;100146.97;5047490;28;19924;-84
2023/02/28 00:24:44;;;;;;;;;;;;;;;0.25;72.01;100155.13;5043153;28;19925;-83
2023/02/28 00:27:10;;;;;;;;;;;;;;;0.08;71.78;100155.97;5051875;28;20292;-83
2023/02/28 00:29:35;;;;;;;;;;;;;;;0.09;72.35;100147.94;5049928;28;19940;-83
2023/02/28 00:32:01;;;;;;;;;;;;;;;0.10;71.37;100152.22;5061607;28;19924;-82
2023/02/28 00:34:26;;;;;;;;;;;;;;;-0.13;71.18;100148.38;5052512;28;19992;-83
2023/02/28 00:36:52;;;;;;;;;;;;;;;-0.23;70.33;100147.63;5050016;28;19936;-83
2023/02/28 00:39:17;;;;;;;;;;;;;;;0.18;72.80;100156.72;5050637;28;19928;-83
2023/02/28 00:41:42;;;;;;;;;;;;;;;-0.06;69.73;100149.44;5048178;28;20526;-83
2023/02/28 00:44:07;;;;;;;;;;;;;;;-0.33;69.60;100145.03;5046608;28;19932;-83
2023/02/28 00:46:32;;;;;;;;;;;;;;;-0.60;69.30;100146.84;5047021;28;19933;-83
2023/02/28 00:48:58;;;;;;;;;;;;;;;-0.26;70.70;100153.16;5045610;28;19992;-83
2023/02/28 00:51:23;;;;;;;;;;;;;;;-0.20;70.27;100147.34;5049300;28;19937;-83
2023/02/28 00:53:48;;;;;;;;;;;;;;;-0.03;70.64;100143.91;5049480;28;20400;-83
2023/02/28 00:56:14;;;;;;;;;;;;;;;-0.31;71.25;100150.16;5064423;28;19970;-83
2023/02/28 00:58:39;;;;;;;;;;;;;;;-0.05;72.74;100149.31;5047886;28;19924;-83
2023/02/28 01:01:04;;;;;;;;;;;;;;;0.25;72.21;100158.59;5048921;28;19943;-83
2023/02/28 01:03:29;;;;;;;;;;;;;;;-0.18;72.07;100145.38;5027900;28;19932;-83
2023/02/28 01:05:55;;;;;;;;;;;;;;;-1.05;68.58;100157.25;5057614;28;20003;-83
2023/02/28 01:08:20;;;;;;;;;;;;;;;-1.46;69.12;100150.56;5063066;28;19967;-82
2023/02/28 01:10:45;;;;;;;;;;;;;;;-1.19;70.68;100149.84;5049429;28;19955;-83
2023/02/28 01:13:12;;;;;;;;;;;;;;;-1.21;69.38;100146.53;5040295;28;20660;-82
2023/02/28 01:15:40;;;;;;;;;;;;;;;-1.25;69.89;100146.00;5023481;28;19928;-81
2023/02/28 01:18:06;;;;;;;;;;;;;;;-1.55;68.44;100148.78;5041690;28;20167;-83
2023/02/28 01:20:31;;;;;;;;;;;;;;;-1.05;71.85;100134.47;5058822;28;19929;-83
2023/02/28 01:22:56;;;;;;;;;;;;;;;-1.49;69.52;100134.31;5044286;28;19925;-83
2023/02/28 01:25:21;;;;;;;;;;;;;;;-0.80;72.56;100127.78;5050068;28;19955;-82
2023/02/28 01:27:46;;;;;;;;;;;;;;;-1.13;72.64;100125.69;5044368;28;20446;-82
2023/02/28 01:30:12;;;;;;;;;;;;;;;-0.42;73.84;100130.22;5046998;28;19946;-82
2023/02/28 01:32:37;;;;;;;;;;;;;;;0.10;73.37;100135.66;5043979;28;20377;-82
2023/02/28 01:35:02;;;;;;;;;;;;;;;0.06;71.31;100134.28;5047252;28;19966;-83
2023/02/28 01:37:28;;;;;;;;;;;;;;;-1.17;67.58;100130.38;5042474;28;20020;-83
2023/02/28 01:39:53;;;;;;;;;;;;;;;-0.21;74.06;100133.38;5043604;28;19948;-82
2023/02/28 01:42:18;;;;;;;;;;;;;;;-1.17;68.25;100129.56;5047811;28;20011;-83
2023/02/28 01:45:06;;;;;;;;;;;;;;;-1.59;68.36;100129.94;5044009;28;19963;-82
2023/02/28 01:47:34;;;;;;;;;;;;;;;-1.34;68.71;100127.69;5056324;28;20292;-82
2023/02/28 01:50:00;;;;;;;;;;;;;;;-0.98;71.32;100137.34;5043381;28;19925;-82
2023/02/28 01:52:26;;;;;;;;;;;;;;;-1.01;69.51;100125.38;5060159;28;20014;-82
2023/02/28 01:54:53;;;;;;;;;;;;;;;-0.16;73.53;100123.28;5059082;28;20027;-83
2023/02/28 01:57:20;;;;;;;;;;;;;;;-0.79;71.18;100118.94;5044559;28;19921;-83
2023/02/28 01:59:56;;;;;;;;;;;;;;;-0.92;72.11;100119.25;5048699;28;19920;-83
2023/02/28 02:02:23;;;;;;;;;;;;;;;-1.31;70.79;100127.41;5042524;28;19967;-82
2023/02/28 02:05:08;;;;;;;;;;;;;;;-1.33;69.60;100127.53;5037290;28;20065;-82
2023/02/28 02:07:38;;;;;;;;;;;;;;;-0.85;73.31;100111.66;5045080;28;19999;-83
2023/02/28 02:10:10;;;;;;;;;;;;;;;-0.14;73.84;100116.06;5036598;28;20314;-83
2023/02/28 02:12:41;;;;;;;;;;;;;;;0.08;73.16;100106.94;5051692;28;19920;-83
2023/02/28 02:15:21;;;;;;;;;;;;;;;0.13;72.58;100102.06;5070546;28;19917;-83
2023/02/28 02:17:51;;;;;;;;;;;;;;;0.44;71.62;100102.44;5052526;28;19983;-84
2023/02/28 02:20:45;;;;;;;;;;;;;;;-0.62;70.40;100097.19;5042553;28;19948;-83
2023/02/28 02:23:28;;;;;;;;;;;;;;;-1.27;69.55;100100.81;5045577;28;19955;-83
2023/02/28 02:25:56;;;;;;;;;;;;;;;-1.14;70.63;100100.47;5064678;28;19928;-83
2023/02/28 02:28:21;;;;;;;;;;;;;;;-1.51;68.92;100103.88;5066048;28;19932;-83
2023/02/28 02:30:49;;;;;;;;;;;;;;;-1.79;68.65;100101.31;5047575;28;19917;-83
2023/02/28 02:33:37;;;;;;;;;;;;;;;-2.02;68.11;100108.59;5047128;28;19916;-83
2023/02/28 02:36:05;;;;;;;;;;;;;;;-1.97;71.14;100113.44;5046388;28;19964;-83
2023/02/28 02:38:39;;;;;;;;;;;;;;;-1.82;70.54;100110.25;5047939;28;19925;-83
2023/02/28 02:41:10;;;;;;;;;;;;;;;-1.88;69.63;100112.59;5068425;28;19952;-83
2023/02/28 02:43:40;;;;;;;;;;;;;;;-2.06;69.22;100112.47;5052536;28;19917;-83
2023/02/28 02:46:09;;;;;;;;;;;;;;;-1.35;72.55;100105.06;5049247;28;19917;-83
2023/02/28 02:48:36;;;;;;;;;;;;;;;-1.79;69.52;100109.97;5060244;28;19924;-82
2023/02/28 02:51:04;;;;;;;;;;;;;;;-1.04;70.67;100103.88;5046759;28;19927;-83
2023/02/28 02:53:32;;;;;;;;;;;;;;;-0.16;72.63;100102.28;5047745;28;20328;-83
2023/02/28 02:55:59;;;;;;;;;;;;;;;0.16;72.33;100101.75;5047580;28;20299;-83
2023/02/28 02:58:27;;;;;;;;;;;;;;;-0.04;71.63;100105.50;5047150;28;20410;-83
2023/02/28 03:00:57;;;;;;;;;;;;;;;-0.45;71.48;100106.91;5050196;28;19924;-82
2023/02/28 03:03:28;;;;;;;;;;;;;;;0.27;72.36;100101.50;5060324;28;19962;-82
2023/02/28 03:05:54;;;;;;;;;;;;;;;-0.02;70.61;100107.00;5042712;28;19928;-83
2023/02/28 03:08:19;;;;;;;;;;;;;;;0.17;70.21;100106.03;5042223;28;19925;-83
2023/02/28 03:10:48;;;;;;;;;;;;;;;0.08;69.12;100113.97;5038238;28;20323;-83
2023/02/28 03:13:13;;;;;;;;;;;;;;;-0.90;67.94;100112.09;5041906;28;19928;-83
2023/02/28 03:15:52;;;;;;;;;;;;;;;0.10;72.62;100106.78;5037777;28;20557;-83
2023/02/28 03:18:24;;;;;;;;;;;;;;;0.27;72.05;100104.13;5039494;28;20304;-83
2023/02/28 03:21:01;;;;;;;;;;;;;;;0.50;70.92;100101.84;5041838;28;20043;-83
2023/02/28 03:23:35;;;;;;;;;;;;;;;0.29;69.78;100106.59;5042798;28;19925;-83
2023/02/28 03:26:26;;;;;;;;;;;;;;;-1.12;66.39;100107.22;5047853;28;20265;-83
2023/02/28 03:28:55;;;;;;;;;;;;;;;-0.81;70.00;100110.41;5057703;28;19963;-83
2023/02/28 03:31:23;;;;;;;;;;;;;;;-1.57;66.75;100111.44;5047402;28;19925;-82
2023/02/28 03:33:55;;;;;;;;;;;;;;;-1.85;67.16;100118.38;5045398;28;20376;-82
2023/02/28 03:36:24;;;;;;;;;;;;;;;-1.91;68.21;100125.94;5049581;28;19921;-83
2023/02/28 03:38:53;;;;;;;;;;;;;;;-1.01;70.89;100117.53;5048105;28;19978;-83
2023/02/28 03:41:21;;;;;;;;;;;;;;;-0.59;72.09;100120.47;5049809;28;19917;-82
2023/02/28 03:43:53;;;;;;;;;;;;;;;-0.53;70.84;100108.59;5048554;28;20159;-83
2023/02/28 03:46:21;;;;;;;;;;;;;;;-0.94;69.14;100123.03;5049749;28;19917;-83
2023/02/28 03:48:53;;;;;;;;;;;;;;;-0.77;67.89;100112.59;5051179;28;19940;-83
2023/02/28 03:51:21;;;;;;;;;;;;;;;-0.96;71.02;100117.09;5065919;28;19916;-83
2023/02/28 03:53:52;;;;;;;;;;;;;;;-0.72;72.77;100112.13;5033130;28;19920;-82
2023/02/28 03:56:22;;;;;;;;;;;;;;;-0.54;71.09;100112.19;5071894;28;20236;-81
2023/02/28 03:58:57;;;;;;;;;;;;;;;0.25;72.51;100113.13;5056458;28;19975;-82
2023/02/28 04:01:25;;;;;;;;;;;;;;;-0.56;68.00;100114.97;5050496;28;19916;-83
2023/02/28 04:03:51;;;;;;;;;;;;;;;-0.63;68.33;100119.13;5065284;28;20406;-83
2023/02/28 04:06:18;;;;;;;;;;;;;;;-0.64;70.72;100111.41;5052308;28;19920;-83
2023/02/28 04:08:43;;;;;;;;;;;;;;;0.32;71.96;100106.31;5051489;28;19921;-83
2023/02/28 04:11:21;;;;;;;;;;;;;;;0.26;70.09;100106.91;5065668;28;20407;-84
2023/02/28 04:13:46;;;;;;;;;;;;;;;0.22;70.03;100114.25;5058851;28;19924;-82
2023/02/28 04:16:12;;;;;;;;;;;;;;;-0.94;66.91;100121.19;5067217;28;19924;-82
2023/02/28 04:18:42;;;;;;;;;;;;;;;-0.04;72.07;100119.44;5053083;28;19925;-82
2023/02/28 04:21:08;;;;;;;;;;;;;;;-1.04;65.99;100109.13;5068240;28;20423;-82
2023/02/28 04:23:33;;;;;;;;;;;;;;;-1.62;66.76;100117.09;5056259;28;19927;-82
2023/02/28 04:25:58;;;;;;;;;;;;;;;-1.12;69.30;100119.50;5031981;28;19928;-82
2023/02/28 04:28:24;;;;;;;;;;;;;;;-1.46;68.09;100120.97;5051075;28;20339;-83
2023/02/28 04:30:59;;;;;;;;;;;;;;;-1.59;67.56;100126.47;5048129;28;20522;-82
2023/02/28 04:33:25;;;;;;;;;;;;;;;-1.62;67.00;100118.91;5064112;28;20277;-83
2023/02/28 04:35:59;;;;;;;;;;;;;;;-1.68;67.82;100120.28;5057044;28;19928;-83
2023/02/28 04:38:24;;;;;;;;;;;;;;;-1.20;68.26;100114.16;5068551;28;19928;-81
2023/02/28 04:40:50;;;;;;;;;;;;;;;-1.63;67.50;100125.09;5053087;28;19928;-82
2023/02/28 04:43:15;;;;;;;;;;;;;;;-1.52;68.62;100127.56;5057276;28;19921;-82
2023/02/28 04:45:40;;;;;;;;;;;;;;;-1.63;67.93;100127.72;5046107;28;19929;-83
2023/02/28 04:48:05;;;;;;;;;;;;;;;-1.71;69.21;100131.06;5052609;28;20089;-82
2023/02/28 04:50:31;;;;;;;;;;;;;;;-1.78;68.79;100127.34;5049772;28;20055;-83
2023/02/28 04:52:56;;;;;;;;;;;;;;;-1.81;68.82;100132.00;5069434;28;19928;-82
2023/02/28 04:55:21;;;;;;;;;;;;;;;-1.69;69.27;100126.50;5049872;28;19916;-82
2023/02/28 04:57:46;;;;;;;;;;;;;;;-1.30;70.82;100131.66;5052809;28;19932;-83
2023/02/28 05:00:15;;;;;;;;;;;;;;;-1.92;68.92;100135.59;5048959;28;19935;-82
2023/02/28 05:02:40;;;;;;;;;;;;;;;-1.41;71.13;100132.66;5069793;28;19920;-83
2023/02/28 05:05:05;;;;;;;;;;;;;;;-1.29;71.10;100128.94;5054155;28;20356;-83
2023/02/28 05:07:31;;;;;;;;;;;;;;;-1.32;70.85;100129.19;5048445;28;19931;-82
2023/02/28 05:09:56;;;;;;;;;;;;;;;-1.51;70.92;100132.66;5043386;28;20356;-83
2023/02/28 05:12:21;;;;;;;;;;;;;;;-1.48;71.12;100136.78;5050045;28;21693;-82
2023/02/28 05:14:46;;;;;;;;;;;;;;;-1.71;69.85;100135.47;5063597;28;20438;-83
2023/02/28 05:17:12;;;;;;;;;;;;;;;-1.96;71.32;100136.81;5059477;28;20040;-82
2023/02/28 05:19:37;;;;;;;;;;;;;;;-1.78;72.13;100137.78;5025391;28;19986;-82
2023/02/28 05:22:02;;;;;;;;;;;;;;;-2.08;71.33;100142.34;5059912;28;20264;-82
2023/02/28 05:24:28;;;;;;;;;;;;;;;-1.91;71.37;100139.88;5030322;28;20890;-83
2023/02/28 05:26:54;;;;;;;;;;;;;;;-0.85;74.05;100133.44;5061069;28;19916;-82
2023/02/28 05:29:19;;;;;;;;;;;;;;;-1.35;70.56;100131.25;5052061;28;19917;-83
2023/02/28 05:31:44;;;;;;;;;;;;;;;-0.88;72.47;100125.88;5048619;28;19935;-83
2023/02/28 05:34:12;;;;;;;;;;;;;;;-0.74;72.71;100127.19;5056563;28;20372;-83
2023/02/28 05:36:38;;;;;;;;;;;;;;;-1.32;69.80;100134.44;5051452;28;19917;-83
2023/02/28 05:39:03;;;;;;;;;;;;;;;-1.39;71.04;100130.72;5043627;28;19943;-82
2023/02/28 05:41:28;;;;;;;;;;;;;;;-1.10;72.51;100147.19;5051163;28;19920;-82
2023/02/28 05:43:53;;;;;;;;;;;;;;;-1.02;71.61;100138.59;5057381;28;19931;-82
2023/02/28 05:46:19;;;;;;;;;;;;;;;-1.12;70.75;100137.81;5052682;28;20289;-81
2023/02/28 05:48:46;;;;;;;;;;;;;;;-1.34;70.87;100143.38;5051999;28;19920;-82
2023/02/28 05:51:11;;;;;;;;;;;;;;;-1.30;70.89;100147.38;5066601;28;19921;-82
2023/02/28 05:53:36;;;;;;;;;;;;;;;-1.72;71.37;100155.56;5056097;28;19974;-82
2023/02/28 05:56:02;;;;;;;;;;;;;;;-1.04;72.44;100140.56;5054142;28;19931;-82
2023/02/28 05:58:30;;;;;;;;;;;;;;;-1.82;71.17;100146.91;5043738;28;19924;-82
2023/02/28 06:00:56;;;;;;;;;;;;;;;-1.60;72.12;100146.59;5051872;28;19963;-81
2023/02/28 06:03:21;;;;;;;;;;;;;;;-1.89;70.20;100153.63;5044928;28;20525;-82
2023/02/28 06:05:47;;;;;;;;;;;;;;;-1.44;72.29;100150.44;5048246;28;19972;-83
2023/02/28 06:08:12;;;;;;;;;;;;;;;-1.65;71.16;100147.97;5045450;28;19916;-83
2023/02/28 06:10:37;;;;;;;;;;;;;;;-1.77;71.38;100152.50;5049001;28;19921;-82
2023/02/28 06:13:03;;;;;;;;;;;;;;;-1.81;70.88;100159.00;5064645;28;19921;-83
2023/02/28 06:15:29;;;;;;;;;;;;;;;-1.93;70.56;100162.72;5046535;28;19933;-81
2023/02/28 06:17:56;;;;;;;;;;;;;;;-1.83;70.70;100162.72;5035937;28;20391;-83
2023/02/28 06:20:22;;;;;;;;;;;;;;;-1.81;70.90;100161.63;5046351;28;19924;-82
2023/02/28 06:22:47;;;;;;;;;;;;;;;-1.95;70.60;100162.03;5046256;28;20376;-82
2023/02/28 06:25:12;;;;;;;;;;;;;;;-1.36;72.04;100158.41;5048239;28;20007;-82
2023/02/28 06:27:37;;;;;;;;;;;;;;;-0.92;71.00;100165.63;5047589;28;20055;-83
2023/02/28 06:30:03;;;;;;;;;;;;;;;-0.62;71.77;100159.28;5045851;28;19995;-83
2023/02/28 06:32:28;;;;;;;;;;;;;;;-0.58;71.11;100165.88;5060239;28;19921;-83
2023/02/28 06:34:54;;;;;;;;;;;;;;;-0.98;71.01;100168.78;5064531;28;20566;-83
2023/02/28 06:37:20;;;;;;;;;;;;;;;-0.80;71.78;100167.91;5045271;28;19985;-81
2023/02/28 06:39:45;;;;;;;;;;;;;;;-0.51;73.37;100165.16;5051752;28;19928;-82
2023/02/28 06:42:10;;;;;;;;;;;;;;;-1.18;70.92;100170.63;5059975;28;20599;-83
2023/02/28 06:44:36;;;;;;;;;;;;;;;-1.41;70.70;100178.94;5031080;28;19924;-83
2023/02/28 06:47:03;;;;;;;;;;;;;;;-0.55;72.94;100178.72;5042232;28;20303;-83
2023/02/28 06:49:28;;;;;;;;;;;;;;;-0.78;71.65;100179.09;5046081;28;19917;-83
2023/02/28 06:51:54;;;;;;;;;;;;;;;-0.68;70.97;100180.84;5046064;28;19924;-83
2023/02/28 06:54:19;;;;;;;;;;;;;;;-1.24;69.32;100186.09;5043948;28;19925;-83
2023/02/28 06:56:44;;;;;;;;;;;;;;;-0.95;72.60;100184.25;5040237;28;19935;-82
2023/02/28 06:59:09;;;;;;;;;;;;;;;-1.29;69.35;100183.91;5056117;28;19933;-82
2023/02/28 07:01:35;;;;;;;;;;;;;;;-1.05;70.62;100183.44;5038472;28;19928;-82
2023/02/28 07:04:00;;;;;;;;;;;;;;;-1.21;68.87;100183.19;5058002;28;19932;-83
2023/02/28 07:06:26;;;;;;;;;;;;;;;-1.16;71.76;100183.63;5043138;28;19916;-82
2023/02/28 07:08:52;;;;;;;;;;;;;;;-1.34;69.34;100193.16;5043361;28;19955;-82
2023/02/28 07:11:18;;;;;;;;;;;;;;;-1.20;70.30;100190.09;5040718;28;20004;-82
2023/02/28 07:13:43;;;;;;;;;;;;;;;-1.32;69.33;100193.81;5048432;28;19924;-82
2023/02/28 07:16:10;;;;;;;;;;;;;;;-1.31;70.46;100191.06;5044508;28;19928;-82
2023/02/28 07:18:35;;;;;;;;;;;;;;;-1.29;69.77;100194.41;5059048;28;19979;-81
2023/02/28 07:21:04;;;;;;;;;;;;;;;-1.29;69.99;100198.78;5037947;28;21918;-82
2023/02/28 07:23:30;;;;;;;;;;;;;;;-1.36;70.91;100192.47;5063519;28;19970;-82
2023/02/28 07:25:55;;;;;;;;;;;;;;;-1.19;70.06;100197.81;5057272;28;19921;-82
2023/02/28 07:28:20;;;;;;;;;;;;;;;-1.29;70.79;100198.78;5058642;28;19920;-82
2023/02/28 07:30:46;;;;;;;;;;;;;;;-0.99;70.24;100193.34;5065999;28;20372;-80
2023/02/28 07:33:11;;;;;;;;;;;;;;;-0.93;69.18;100196.22;5050236;28;20269;-82
2023/02/28 07:35:36;;;;;;;;;;;;;;;-0.90;69.36;100200.38;5049527;28;19962;-82
2023/02/28 07:38:02;;;;;;;;;;;;;;;-0.99;68.30;100191.56;5036752;28;19978;-84
2023/02/28 07:40:27;;;;;;;;;;;;;;;-1.01;67.76;100193.50;5054906;28;19963;-81
2023/02/28 07:42:53;;;;;;;;;;;;;;;-1.21;66.45;100206.78;5053644;28;19983;-84
2023/02/28 07:45:19;;;;;;;;;;;;;;;-1.16;67.46;100196.72;5052524;28;19924;-83
2023/02/28 07:47:44;;;;;;;;;;;;;;;-1.09;66.24;100203.03;5067598;28;19932;-84
2023/02/28 07:50:11;;;;;;;;;;;;;;;-1.08;66.00;100202.06;5069716;28;20287;-84
2023/02/28 07:52:37;;;;;;;;;;;;;;;-1.08;67.06;100200.28;5070585;28;19916;-82
2023/02/28 07:55:02;;;;;;;;;;;;;;;-1.13;66.53;100197.25;5064217;28;19928;-83
2023/02/28 07:57:27;;;;;;;;;;;;;;;-0.94;67.35;100204.25;5073908;28;19942;-83
2023/02/28 07:59:53;;;;;;;;;;;;;;;-0.90;65.98;100201.19;5075114;28;19924;-84
2023/02/28 08:02:18;;;;;;;;;;;;;;;-0.65;66.62;100198.88;5056504;28;19921;-84
2023/02/28 08:04:45;;;;;;;;;;;;;;;-0.63;65.48;100205.63;5070867;28;19920;-83
2023/02/28 08:07:12;;;;;;;;;;;;;;;-0.70;65.69;100199.34;5064897;28;19924;-83
2023/02/28 08:09:38;;;;;;;;;;;;;;;-0.66;65.45;100207.75;5052925;28;19921;-83
2023/02/28 08:12:04;;;;;;;;;;;;;;;-0.59;65.59;100200.97;5065413;28;20408;-83
2023/02/28 08:14:29;;;;;;;;;;;;;;;-0.67;64.47;100195.59;5056353;28;19917;-83
2023/02/28 08:16:54;;;;;;;;;;;;;;;-0.62;63.89;100198.59;5064514;28;19928;-83
2023/02/28 08:19:19;;;;;;;;;;;;;;;-0.49;63.99;100199.94;5057136;28;19929;-84
2023/02/28 08:21:45;;;;;;;;;;;;;;;-0.03;67.68;100201.63;5083966;28;19920;-84
2023/02/28 08:24:10;;;;;;;;;;;;;;;-0.18;63.58;100198.69;5070723;28;19927;-84
2023/02/28 08:26:35;;;;;;;;;;;;;;;-0.05;65.57;100201.78;5070785;28;19964;-84
2023/02/28 08:29:00;;;;;;;;;;;;;;;-0.37;64.10;100197.97;5045056;28;20372;-84
2023/02/28 08:31:26;;;;;;;;;;;;;;;-0.34;63.68;100200.28;5059695;28;20304;-84
2023/02/28 08:33:52;;;;;;;;;;;;;;;-0.45;62.93;100190.81;5080791;28;20402;-83
2023/02/28 08:36:18;;;;;;;;;;;;;;;-0.58;61.92;100198.19;5069639;28;19974;-83
2023/02/28 08:38:44;;;;;;;;;;;;;;;-0.54;62.46;100196.91;5044818;28;19988;-84
2023/02/28 08:41:10;;;;;;;;;;;;;;;-0.41;61.77;100202.66;5067475;28;19928;-84
2023/02/28 08:43:35;;;;;;;;;;;;;;;-0.15;63.50;100187.88;5075436;28;19923;-84
2023/02/28 08:46:01;;;;;;;;;;;;;;;-0.21;61.46;100198.97;5070900;28;19952;-84
2023/02/28 08:48:27;;;;;;;;;;;;;;;-0.22;61.48;100191.25;5067264;28;19924;-84
2023/02/28 08:50:59;;;;;;;;;;;;;;;-0.23;60.80;100184.34;5059384;28;19921;-83
2023/02/28 08:53:24;;;;;;;;;;;;;;;-0.29;60.44;100195.44;5051575;28;20434;-83
2023/02/28 08:56:06;;;;;;;;;;;;;;;-0.17;60.90;100197.69;5057102;28;19964;-83
2023/02/28 08:58:32;;;;;;;;;;;;;;;-0.22;59.85;100197.31;5067930;28;19998;-84
2023/02/28 09:00:57;;;;;;;;;;;;;;;-0.01;61.15;100202.31;5073485;28;19920;-84
2023/02/28 09:03:23;;;;;;;;;;;;;;;-0.09;59.83;100202.22;5064820;28;20376;-83
2023/02/28 09:05:55;;;;;;;;;;;;;;;0.26;61.39;100204.88;5065605;28;20368;-83
2023/02/28 09:08:20;;;;;;;;;;;;;;;0.42;63.02;100204.19;5039055;28;20023;-84
2023/02/28 09:10:46;;;;;;;;;;;;;;;0.37;66.07;100201.22;5063995;28;19956;-83
2023/02/28 09:13:11;;;;;;;;;;;;;;;0.27;63.29;100201.28;5059453;28;20402;-84
2023/02/28 09:15:39;;;;;;;;;;;;;;;0.34;62.48;100204.13;5055664;28;19924;-84
2023/02/28 09:18:05;;;;;;;;;;;;;;;0.44;62.54;100203.06;5063756;28;19925;-83
2023/02/28 09:20:30;;;;;;;;;;;;;;;0.30;60.87;100203.63;5048323;28;19921;-84
2023/02/28 09:22:55;;;;;;;;;;;;;;;0.34;62.97;100209.38;5043122;28;19925;-84
2023/02/28 09:25:20;;;;;;;;;;;;;;;0.39;62.69;100205.34;5040605;28;19968;-84
2023/02/28 09:27:46;;;;;;;;;;;;;;;0.30;61.02;100192.28;5068803;28;20326;-84
2023/02/28 09:30:11;;;;;;;;;;;;;;;0.52;64.15;100197.06;5055019;28;19932;-84
2023/02/28 09:32:37;;;;;;;;;;;;;;;0.81;65.08;100197.63;5074371;28;19921;-83
2023/02/28 09:35:02;;;;;;;;;;;;;;;0.57;61.45;100194.81;5056529;28;20394;-83
2023/02/28 09:37:29;;;;;;;;;;;;;;;0.64;61.38;100203.72;5052375;28;20312;-84
2023/02/28 09:39:54;;;;;;;;;;;;;;;0.55;60.94;100210.72;5063669;28;19925;-82
2023/02/28 09:42:29;;;;;;;;;;;;;;;0.77;61.35;100207.63;5059102;28;19921;-83
2023/02/28 09:44:56;;;;;;;;;;;;;;;0.74;60.19;100204.50;5062380;28;20399;-83
2023/02/28 09:47:33;;;;;;;;;;;;;;;0.93;61.86;100204.28;5062517;28;19921;-84
2023/02/28 09:50:01;;;;;;;;;;;;;;;1.09;64.12;100208.84;5052726;28;20004;-84
2023/02/28 09:52:30;;;;;;;;;;;;;;;1.13;62.62;100207.56;5039480;28;19943;-84
2023/02/28 09:54:56;;;;;;;;;;;;;;;1.27;62.81;100202.53;5056641;28;20054;-84
2023/02/28 09:57:36;;;;;;;;;;;;;;;1.06;58.71;100209.97;5061697;28;19963;-84
2023/02/28 10:00:01;;;;;;;;;;;;;;;1.03;60.56;100207.63;5057056;28;19932;-84
2023/02/28 10:02:45;;;;;;;;;;;;;;;1.16;59.61;100204.59;5055786;28;19920;-83
2023/02/28 10:05:15;;;;;;;;;;;;;;;1.07;57.63;100214.22;5053799;28;19948;-83
2023/02/28 10:07:54;;;;;;;;;;;;;;;1.08;57.82;100210.63;5061292;28;19932;-83
2023/02/28 10:10:23;;;;;;;;;;;;;;;1.06;59.20;100211.78;5065868;28;20447;-83
2023/02/28 10:12:52;;;;;;;;;;;;;;;1.45;63.13;100213.81;5076059;28;20445;-84
2023/02/28 10:15:18;;;;;;;;;;;;;;;1.41;62.54;100207.22;5065396;28;19925;-84
2023/02/28 10:17:47;;;;;;;;;;;;;;;1.28;59.37;100212.09;5061780;28;20015;-84
2023/02/28 10:20:21;;;;;;;;;;;;;;;1.14;57.02;100207.38;5076915;28;19944;-84
2023/02/28 10:22:49;;;;;;;;;;;;;;;1.25;59.76;100211.56;5062451;28;19944;-84
2023/02/28 10:25:25;;;;;;;;;;;;;;;1.08;56.60;100212.44;5059850;28;19931;-84
2023/02/28 10:27:57;;;;;;;;;;;;;;;1.33;62.54;100211.63;5057622;28;19917;-84
2023/02/28 10:30:23;;;;;;;;;;;;;;;1.39;60.52;100217.09;5057645;28;20390;-83
2023/02/28 10:32:53;;;;;;;;;;;;;;;1.22;57.48;100211.88;5054331;28;19920;-84
2023/02/28 10:35:22;;;;;;;;;;;;;;;1.28;60.85;100204.19;5055909;28;19939;-84
2023/02/28 10:37:49;;;;;;;;;;;;;;;1.27;61.96;100202.53;5069434;28;20417;-83
2023/02/28 10:40:17;;;;;;;;;;;;;;;1.36;61.57;100198.97;5069169;28;19917;-83
2023/02/28 10:42:55;;;;;;;;;;;;;;;0.98;56.76;100204.66;5072641;28;19928;-84
2023/02/28 10:45:20;;;;;;;;;;;;;;;1.36;62.50;100204.22;5055544;28;19923;-84
2023/02/28 10:47:55;;;;;;;;;;;;;;;1.16;58.24;100197.53;5035679;28;20008;-84
2023/02/28 10:50:32;;;;;;;;;;;;;;;0.92;57.59;100202.63;5073943;28;19923;-84
2023/02/28 10:53:09;;;;;;;;;;;;;;;0.86;57.28;100198.00;5059057;28;19917;-84
2023/02/28 10:55:35;;;;;;;;;;;;;;;0.98;59.06;100194.16;5070073;28;20054;-84
2023/02/28 10:58:00;;;;;;;;;;;;;;;0.87;57.80;100189.16;5055332;28;19956;-84
2023/02/28 11:00:31;;;;;;;;;;;;;;;0.90;57.15;100188.81;5056951;28;19921;-84
2023/02/28 11:02:56;;;;;;;;;;;;;;;0.95;56.79;100183.94;5075179;28;20457;-84
2023/02/28 11:05:32;;;;;;;;;;;;;;;0.79;56.10;100190.91;5079234;28;20159;-84
2023/02/28 11:08:04;;;;;;;;;;;;;;;0.93;57.18;100191.16;5066779;28;20016;-82
2023/02/28 11:10:32;;;;;;;;;;;;;;;0.99;57.37;100184.44;5070269;28;19913;-82
2023/02/28 11:12:57;;;;;;;;;;;;;;;0.93;56.73;100185.91;5069257;28;19917;-83
2023/02/28 11:15:27;;;;;;;;;;;;;;;1.09;60.02;100175.47;5060388;28;19948;-82
2023/02/28 11:18:20;;;;;;;;;;;;;;;1.39;60.70;100177.63;5049996;28;19924;-82
2023/02/28 11:20:49;;;;;;;;;;;;;;;1.36;61.61;100175.31;5071630;28;20407;-82
2023/02/28 11:23:15;;;;;;;;;;;;;;;1.14;58.75;100167.13;5062208;28;19921;-83
2023/02/28 11:25:47;;;;;;;;;;;;;;;1.05;55.84;100174.13;5069913;28;20383;-83
2023/02/28 11:28:32;;;;;;;;;;;;;;;0.98;55.59;100174.94;5061513;28;19971;-83
2023/02/28 11:31:16;;;;;;;;;;;;;;;1.09;56.68;100174.66;5061118;28;19999;-83
2023/02/28 11:33:51;;;;;;;;;;;;;;;0.98;55.76;100172.28;5055931;28;19917;-82
2023/02/28 11:36:28;;;;;;;;;;;;;;;0.98;55.83;100170.50;5071483;28;19917;-83
2023/02/28 11:38:54;;;;;;;;;;;;;;;1.28;59.93;100170.00;5053506;28;20475;-83
2023/02/28 11:41:27;;;;;;;;;;;;;;;1.32;57.46;100170.50;5057404;28;19924;-83
2023/02/28 11:43:52;;;;;;;;;;;;;;;1.30;57.48;100162.78;5060280;28;20022;-81
2023/02/28 11:46:33;;;;;;;;;;;;;;;1.31;58.79;100168.88;5066493;28;19917;-83
2023/02/28 11:48:58;;;;;;;;;;;;;;;1.08;55.82;100155.44;5057441;28;19920;-81
2023/02/28 11:51:27;;;;;;;;;;;;;;;1.24;59.94;100154.69;5064156;28;19921;-82
2023/02/28 11:54:02;;;;;;;;;;;;;;;1.35;58.08;100160.53;5063674;28;20483;-83
2023/02/28 11:56:37;;;;;;;;;;;;;;;1.59;61.04;100162.41;5061531;28;20273;-83
2023/02/28 11:59:08;;;;;;;;;;;;;;;1.60;57.54;100150.06;5066142;28;19993;-83
2023/02/28 12:01:34;;;;;;;;;;;;;;;1.18;56.26;100158.75;5072507;28;19916;-82
2023/02/28 12:03:59;;;;;;;;;;;;;;;1.19;57.00;100149.06;5059307;28;20439;-83
2023/02/28 12:06:37;;;;;;;;;;;;;;;1.15;55.91;100153.00;5055549;28;19916;-83
2023/02/28 12:09:02;;;;;;;;;;;;;;;1.11;56.72;100147.25;5082845;28;20001;-82
2023/02/28 12:11:46;;;;;;;;;;;;;;;1.20;56.63;100148.91;5081781;28;19917;-82
2023/02/28 12:14:32;;;;;;;;;;;;;;;1.15;56.35;100132.81;5067965;28;20353;-83
2023/02/28 12:17:15;;;;;;;;;;;;;;;1.19;56.46;100139.38;5060179;28;19970;-82
2023/02/28 12:19:58;;;;;;;;;;;;;;;1.23;56.57;100134.63;5063497;28;20029;-82
2023/02/28 12:22:32;;;;;;;;;;;;;;;1.34;56.99;100132.56;5066991;28;19928;-82
2023/02/28 12:25:03;;;;;;;;;;;;;;;1.33;56.17;100135.34;5082967;28;19987;-82
2023/02/28 12:27:32;;;;;;;;;;;;;;;1.36;56.39;100122.69;5067922;28;19924;-83
2023/02/28 12:30:01;;;;;;;;;;;;;;;1.38;55.66;100120.72;5055542;28;19978;-83
2023/02/28 12:32:30;;;;;;;;;;;;;;;1.29;55.42;100119.03;5070945;28;19917;-82
2023/02/28 12:34:58;;;;;;;;;;;;;;;1.47;56.57;100122.41;5065445;28;19917;-84
2023/02/28 12:37:38;;;;;;;;;;;;;;;2.13;61.66;100124.22;5057805;28;19970;-83
2023/02/28 12:40:12;;;;;;;;;;;;;;;1.65;55.51;100119.69;5078336;28;20219;-84
2023/02/28 12:42:42;;;;;;;;;;;;;;;1.75;55.96;100120.34;5086389;28;19960;-83
2023/02/28 12:45:13;;;;;;;;;;;;;;;1.95;57.19;100123.53;5088043;28;20434;-83